createdAt,value
2018-02-20T06:15:33.396Z,25.60
2018-02-20T06:18:03.062Z,24.33
2018-02-20T06:20:46.606Z,29.17
2018-02-20T06:27:24.703Z,24.30
2018-02-20T06:29:54.470Z,23.50
2018-02-20T06:32:24.116Z,24.23
2018-02-20T06:34:53.975Z,25.60
2018-02-20T06:37:25.366Z,24.37
2018-02-20T06:43:18.515Z,28.83
2018-02-20T06:45:48.420Z,26.17
2018-02-20T06:48:17.948Z,25.53
2018-02-20T06:50:52.712Z,24.30
2018-02-20T06:53:24.271Z,22.73
2018-02-20T06:59:04.874Z,26.03
2018-02-20T07:01:41.957Z,24.50
2018-02-20T07:04:11.563Z,28.70
2018-02-20T07:06:44.581Z,26.13
2018-02-20T07:09:14.850Z,24.27
2018-02-20T07:11:49.237Z,28.03
2018-02-20T07:14:18.991Z,28.83
2018-02-20T07:59:10.985Z,23.20
2018-02-20T08:01:40.728Z,25.83
2018-02-20T08:04:10.252Z,21.97
2018-02-20T08:06:39.771Z,21.13
2018-02-20T08:09:09.361Z,25.30
2018-02-20T08:11:39.106Z,22.33
2018-02-20T08:14:08.734Z,25.80
2018-02-20T08:16:39.168Z,24.20
2018-02-20T08:19:08.628Z,22.73
2018-02-20T08:21:38.178Z,21.60
2018-02-20T08:24:07.972Z,22.17
2018-02-20T08:26:37.867Z,24.50
2018-02-20T08:29:07.540Z,23.93
2018-02-20T08:31:37.240Z,21.60
2018-02-20T08:34:06.817Z,21.53
2018-02-20T08:36:36.608Z,21.87
2018-02-20T08:39:06.054Z,23.73
2018-02-20T08:41:35.447Z,20.33
2018-02-20T08:44:05.147Z,20.63
2018-02-20T08:46:34.754Z,20.63
2018-02-20T08:49:04.537Z,19.97
2018-02-20T08:51:34.146Z,21.67
2018-02-20T08:54:04.146Z,22.23
2018-02-20T08:57:00.832Z,19.83
2018-02-20T08:59:32.559Z,20.43
2018-02-20T09:02:02.447Z,19.30
2018-02-20T09:04:32.389Z,21.87
2018-02-20T09:07:02.753Z,18.67
2018-02-20T09:09:32.920Z,18.00
2018-02-20T09:12:02.375Z,19.93
2018-02-20T09:14:31.937Z,18.73
2018-02-20T09:17:01.593Z,22.00
2018-02-20T09:19:31.710Z,19.57
2018-02-20T09:22:01.351Z,19.77
2018-02-20T09:24:30.884Z,18.97
2018-02-20T09:27:01.320Z,25.03
2018-02-20T09:29:30.923Z,19.13
2018-02-20T09:32:00.536Z,16.60
2018-02-20T09:34:29.968Z,18.00
2018-02-20T09:36:59.455Z,19.53
2018-02-20T09:39:28.878Z,16.53
2018-02-20T09:41:59.104Z,20.67
2018-02-20T09:44:28.517Z,16.97
2018-02-20T09:46:58.001Z,15.97
2018-02-20T09:49:27.454Z,19.40
2018-02-20T09:51:57.659Z,20.00
2018-02-20T09:54:27.261Z,18.33
2018-02-20T09:56:56.811Z,18.43
2018-02-20T09:59:26.381Z,18.20
2018-02-20T10:01:56.247Z,18.57
2018-02-20T10:04:26.015Z,18.63
2018-02-20T10:06:55.803Z,17.83
2018-02-20T10:09:26.334Z,22.90
2018-02-20T10:11:56.155Z,16.40
2018-02-20T10:14:25.801Z,17.90
2018-02-20T10:16:55.447Z,15.63
2018-02-20T10:19:25.219Z,21.60
2018-02-20T10:21:55.760Z,17.73
2018-02-20T10:24:26.338Z,18.07
2018-02-20T10:26:56.351Z,18.47
2018-02-20T10:29:25.800Z,18.10
2018-02-20T10:31:55.427Z,18.83
2018-02-20T10:34:25.029Z,17.47
2018-02-20T10:36:54.770Z,15.73
2018-02-20T10:39:36.112Z,19.23
2018-02-20T10:42:06.136Z,15.23
2018-02-20T10:44:35.735Z,17.27
2018-02-20T10:47:05.476Z,15.17
2018-02-20T10:49:35.349Z,16.10
2018-02-20T10:52:05.532Z,16.13
2018-02-20T10:54:34.980Z,16.23
2018-02-20T10:57:09.191Z,14.83
2018-02-20T10:59:38.817Z,13.97
2018-02-20T11:02:08.247Z,12.67
2018-02-20T11:04:37.766Z,13.70
2018-02-20T11:07:07.367Z,13.43
2018-02-20T11:09:38.408Z,13.97
2018-02-20T11:12:07.944Z,12.23
2018-02-20T11:14:37.782Z,12.07
2018-02-20T11:17:07.161Z,12.00
2018-02-20T11:19:36.562Z,17.53
2018-02-20T11:22:06.673Z,16.93
2018-02-20T11:24:36.579Z,13.20
2018-02-20T11:27:06.765Z,12.27
2018-02-20T11:29:37.290Z,11.70
2018-02-20T11:32:10.279Z,13.23
2018-02-20T11:34:40.242Z,13.17
2018-02-20T11:37:10.920Z,11.57
2018-02-20T11:39:40.827Z,13.33
2018-02-20T13:25:50.833Z,16.27
2018-02-20T13:28:39.890Z,17.33
2018-02-20T13:31:09.654Z,19.40
2018-02-20T13:33:39.450Z,20.67
2018-02-20T13:36:09.144Z,18.57
2018-02-20T13:38:38.702Z,17.63
2018-02-20T13:41:08.365Z,20.23
2018-02-20T13:43:37.821Z,18.17
2018-02-20T13:46:07.173Z,21.70
2018-02-20T13:48:36.803Z,19.57
2018-02-20T13:51:07.472Z,21.63
2018-02-20T13:53:37.119Z,18.63
2018-02-20T13:56:06.567Z,19.90
2018-02-20T13:58:36.096Z,19.00
2018-02-20T14:01:05.897Z,19.70
2018-02-20T14:03:36.155Z,20.50
2018-02-20T14:06:06.591Z,22.10
2018-02-20T14:08:36.088Z,23.60
2018-02-20T14:11:06.093Z,21.90
2018-02-20T14:13:35.431Z,27.80
2018-02-20T14:16:05.198Z,24.80
2018-02-20T14:18:34.834Z,21.80
2018-02-20T14:21:05.092Z,21.07
2018-02-20T14:23:34.969Z,24.40
2018-02-20T14:26:04.390Z,22.13
2018-02-20T14:28:34.105Z,22.43
2018-02-20T14:31:03.998Z,24.30
2018-02-20T14:33:33.526Z,24.23
2018-02-20T14:36:05.097Z,23.27
2018-02-20T14:38:35.616Z,21.50
2018-02-20T14:41:05.163Z,23.10
2018-02-20T14:43:34.697Z,22.70
2018-02-20T14:46:08.778Z,22.97
2018-02-20T15:02:43.530Z,29.73
2018-02-20T15:05:16.614Z,27.43
2018-02-20T15:07:54.178Z,31.07
2018-02-20T15:10:23.944Z,26.20
2018-02-20T15:12:53.606Z,31.90
2018-02-20T15:15:23.139Z,30.30
2018-02-20T15:17:52.697Z,33.20
2018-02-20T15:20:22.329Z,33.03
2018-02-20T15:22:51.804Z,33.23
2018-02-20T15:25:21.286Z,29.50
2018-02-20T15:27:50.754Z,29.07
2018-02-20T15:30:20.123Z,32.30
2018-02-20T15:32:49.486Z,28.40
2018-02-20T15:35:18.810Z,26.23
2018-02-20T15:37:48.285Z,29.63
2018-02-20T15:40:17.723Z,29.03
2018-02-20T15:42:47.181Z,26.90
2018-02-20T15:45:16.654Z,23.93
2018-02-20T15:47:46.527Z,23.10
2018-02-20T17:25:42.703Z,25.20
2018-02-20T17:28:12.448Z,25.23
2018-02-20T17:30:42.271Z,24.67
2018-02-20T17:33:12.259Z,25.23
2018-02-20T17:35:43.132Z,26.50
2018-02-20T17:38:13.209Z,23.97
2018-02-20T17:40:42.621Z,24.23
2018-02-20T17:43:12.236Z,28.43
2018-02-20T17:45:41.837Z,25.53
2018-02-20T17:48:12.318Z,29.03
2018-02-20T17:50:42.044Z,27.83
2018-02-20T17:53:11.522Z,26.53
2018-02-20T18:02:20.792Z,32.77
2018-02-20T18:04:50.370Z,31.50
2018-02-20T18:07:19.886Z,32.93
2018-02-20T18:09:49.662Z,35.10
2018-02-20T18:12:19.276Z,34.50
2018-02-20T18:14:48.857Z,38.83
2018-02-20T19:41:34.625Z,26.97
2018-02-20T19:44:04.237Z,27.03
2018-02-20T19:46:33.944Z,24.93
2018-02-20T19:49:04.184Z,28.07
2018-02-20T19:51:34.353Z,27.93
2018-02-20T19:54:04.174Z,25.97
2018-02-20T20:00:09.745Z,28.70
2018-02-20T20:02:39.380Z,25.20
2018-02-20T20:05:08.784Z,25.63
2018-02-20T20:07:38.203Z,26.37
2018-02-20T20:10:07.647Z,23.67
2018-02-20T20:12:37.573Z,26.63
2018-02-20T20:15:07.237Z,24.97
2018-02-20T20:17:37.165Z,28.20
2018-02-20T20:20:06.702Z,30.03
2018-02-20T20:22:36.361Z,28.60
2018-02-20T20:25:05.925Z,27.37
2018-02-20T20:27:35.615Z,30.13
2018-02-20T20:30:05.560Z,27.33
2018-02-20T20:32:35.202Z,26.03
